Terminal Aerodrome Forecast
Issued by NWS Sioux Falls, SD

Home | Current Version | Previous Version | Graphics & Text | Print | Product List | Glossary Off
Versions: 1 2 3 4 5 6 7 8 9 10 11 12 13 14 15 16 17 18 19 20

879
FTUS43 KFSD 041407 AAC
TAFFSD
TAF AMD
KFSD 041407Z 0414/0512 29008KT P6SM BKN015
     FM041500 31010KT P6SM SCT025 BKN035
     FM042000 31010KT P6SM SCT040
     FM050000 29006KT P6SM FEW070
     FM050500 VRB03KT P6SM BKN130=

USA.gov is the U.S. government's official web portal to all federal, state and local government web resources and services.